sensor_id;sensor_type;location;lat;lon;timestamp;pressure;altitude;pressure_sealevel;temperature;humidity
9229;BME280;4649;42.644;23.284;2022-10-16T00:01:16;93686.75;;;9.17;91.99
9229;BME280;4649;42.644;23.284;2022-10-16T00:03:46;93690.22;;;9.18;91.96
9229;BME280;4649;42.644;23.284;2022-10-16T00:06:14;93671.22;;;9.12;90.91
9229;BME280;4649;42.644;23.284;2022-10-16T00:08:41;93689.84;;;9.25;90.80
9229;BME280;4649;42.644;23.284;2022-10-16T00:11:11;93699.13;;;9.24;90.79
9229;BME280;4649;42.644;23.284;2022-10-16T00:13:40;93639.59;;;8.70;92.29
9229;BME280;4649;42.644;23.284;2022-10-16T00:16:09;93695.59;;;9.04;92.54
9229;BME280;4649;42.644;23.284;2022-10-16T00:18:36;93700.28;;;9.03;93.54
9229;BME280;4649;42.644;23.284;2022-10-16T00:21:09;93499.44;;;7.66;94.39
9229;BME280;4649;42.644;23.284;2022-10-16T00:23:37;93688.00;;;8.88;94.93
9229;BME280;4649;42.644;23.284;2022-10-16T00:26:07;93509.25;;;7.54;95.61
9229;BME280;4649;42.644;23.284;2022-10-16T00:28:36;93654.63;;;8.48;96.49
9229;BME280;4649;42.644;23.284;2022-10-16T00:31:05;93632.94;;;8.28;96.42
9229;BME280;4649;42.644;23.284;2022-10-16T00:33:33;93641.59;;;8.32;96.36
9229;BME280;4649;42.644;23.284;2022-10-16T00:36:00;93640.03;;;8.40;95.75
9229;BME280;4649;42.644;23.284;2022-10-16T00:38:30;93697.84;;;8.91;95.40
9229;BME280;4649;42.644;23.284;2022-10-16T00:40:58;93619.09;;;8.35;95.21
9229;BME280;4649;42.644;23.284;2022-10-16T00:43:40;93597.31;;;8.24;94.30
9229;BME280;4649;42.644;23.284;2022-10-16T00:46:14;93577.19;;;8.10;93.88
9229;BME280;4649;42.644;23.284;2022-10-16T00:48:46;93631.38;;;8.50;94.47
9229;BME280;4649;42.644;23.284;2022-10-16T00:51:14;93569.75;;;8.05;94.35
9229;BME280;4649;42.644;23.284;2022-10-16T00:53:44;93601.88;;;8.18;95.29
9229;BME280;4649;42.644;23.284;2022-10-16T00:56:11;93698.22;;;8.84;94.73
9229;BME280;4649;42.644;23.284;2022-10-16T00:58:39;93681.28;;;8.83;93.60
9229;BME280;4649;42.644;23.284;2022-10-16T01:01:07;93658.38;;;8.64;93.27
9229;BME280;4649;42.644;23.284;2022-10-16T01:03:35;93702.97;;;8.89;93.86
9229;BME280;4649;42.644;23.284;2022-10-16T01:06:18;93680.53;;;8.68;92.41
9229;BME280;4649;42.644;23.284;2022-10-16T01:08:59;93706.16;;;8.87;93.61
9229;BME280;4649;42.644;23.284;2022-10-16T01:11:33;93713.47;;;8.87;93.62
9229;BME280;4649;42.644;23.284;2022-10-16T01:14:11;93643.72;;;8.28;95.16
9229;BME280;4649;42.644;23.284;2022-10-16T01:16:46;93659.72;;;8.08;96.39
9229;BME280;4649;42.644;23.284;2022-10-16T01:19:25;93582.03;;;7.45;97.93
9229;BME280;4649;42.644;23.284;2022-10-16T01:22:08;93462.22;;;6.48;99.55
9229;BME280;4649;42.644;23.284;2022-10-16T01:24:43;93467.09;;;6.26;100.00
9229;BME280;4649;42.644;23.284;2022-10-16T01:27:17;93554.91;;;7.02;100.00
9229;BME280;4649;42.644;23.284;2022-10-16T01:29:52;93708.13;;;7.79;100.00
9229;BME280;4649;42.644;23.284;2022-10-16T01:32:29;93549.84;;;6.63;100.00
9229;BME280;4649;42.644;23.284;2022-10-16T01:35:02;93606.44;;;7.10;100.00
9229;BME280;4649;42.644;23.284;2022-10-16T01:37:34;93695.91;;;7.46;100.00
9229;BME280;4649;42.644;23.284;2022-10-16T01:40:06;93556.47;;;6.53;100.00
9229;BME280;4649;42.644;23.284;2022-10-16T01:42:53;93608.88;;;7.08;100.00
9229;BME280;4649;42.644;23.284;2022-10-16T01:45:26;93573.38;;;6.86;100.00
9229;BME280;4649;42.644;23.284;2022-10-16T01:48:00;93565.56;;;6.97;100.00
9229;BME280;4649;42.644;23.284;2022-10-16T01:50:34;93567.63;;;7.02;100.00
9229;BME280;4649;42.644;23.284;2022-10-16T01:53:12;93704.81;;;8.07;100.00
9229;BME280;4649;42.644;23.284;2022-10-16T01:55:43;93645.19;;;7.68;99.90
9229;BME280;4649;42.644;23.284;2022-10-16T01:58:14;93605.94;;;7.52;99.05
9229;BME280;4649;42.644;23.284;2022-10-16T02:00:43;93700.34;;;8.28;98.91
9229;BME280;4649;42.644;23.284;2022-10-16T02:03:16;93711.25;;;8.33;98.27
9229;BME280;4649;42.644;23.284;2022-10-16T02:05:46;93721.22;;;8.42;97.64
9229;BME280;4649;42.644;23.284;2022-10-16T02:08:16;93705.31;;;8.44;97.68
9229;BME280;4649;42.644;23.284;2022-10-16T02:10:43;93641.75;;;7.90;96.73
9229;BME280;4649;42.644;23.284;2022-10-16T02:13:15;93719.09;;;8.46;96.67
9229;BME280;4649;42.644;23.284;2022-10-16T02:15:43;93600.94;;;7.60;97.02
9229;BME280;4649;42.644;23.284;2022-10-16T02:18:11;93718.47;;;8.50;96.60
9229;BME280;4649;42.644;23.284;2022-10-16T02:20:43;93699.81;;;8.38;96.01
9229;BME280;4649;42.644;23.284;2022-10-16T02:23:16;93608.88;;;7.78;95.82
9229;BME280;4649;42.644;23.284;2022-10-16T02:25:50;93603.31;;;7.81;96.08
9229;BME280;4649;42.644;23.284;2022-10-16T02:28:23;93661.28;;;8.00;96.02
9229;BME280;4649;42.644;23.284;2022-10-16T02:30:56;93596.00;;;7.58;96.77
9229;BME280;4649;42.644;23.284;2022-10-16T02:33:24;93634.34;;;7.77;96.56
9229;BME280;4649;42.644;23.284;2022-10-16T02:35:53;93691.97;;;8.26;95.93
9229;BME280;4649;42.644;23.284;2022-10-16T02:38:23;93550.34;;;7.17;96.45
9229;BME280;4649;42.644;23.284;2022-10-16T02:40:52;93628.00;;;7.65;96.26
9229;BME280;4649;42.644;23.284;2022-10-16T02:43:21;93737.97;;;8.46;96.33
9229;BME280;4649;42.644;23.284;2022-10-16T02:45:49;93692.06;;;8.08;96.34
9229;BME280;4649;42.644;23.284;2022-10-16T02:48:16;93747.16;;;8.39;96.82
9229;BME280;4649;42.644;23.284;2022-10-16T02:50:43;93614.00;;;7.52;96.74
9229;BME280;4649;42.644;23.284;2022-10-16T02:53:13;93637.56;;;7.66;97.52
9229;BME280;4649;42.644;23.284;2022-10-16T02:55:41;93750.59;;;8.40;97.05
9229;BME280;4649;42.644;23.284;2022-10-16T02:58:08;93744.75;;;8.41;96.77
9229;BME280;4649;42.644;23.284;2022-10-16T03:00:38;93744.94;;;8.38;97.62
9229;BME280;4649;42.644;23.284;2022-10-16T03:03:05;93737.94;;;8.31;97.26
9229;BME280;4649;42.644;23.284;2022-10-16T03:05:33;93635.38;;;7.56;97.72
9229;BME280;4649;42.644;23.284;2022-10-16T03:08:00;93698.03;;;8.12;98.18
9229;BME280;4649;42.644;23.284;2022-10-16T03:10:27;93732.75;;;8.42;97.23
9229;BME280;4649;42.644;23.284;2022-10-16T03:12:55;93610.97;;;7.59;97.04
9229;BME280;4649;42.644;23.284;2022-10-16T03:15:22;93750.75;;;8.59;97.14
9229;BME280;4649;42.644;23.284;2022-10-16T03:17:51;93622.50;;;7.83;95.58
9229;BME280;4649;42.644;23.284;2022-10-16T03:20:19;93750.81;;;8.88;94.47
9229;BME280;4649;42.644;23.284;2022-10-16T03:22:47;93716.31;;;8.17;94.67
9229;BME280;4649;42.644;23.284;2022-10-16T03:25:14;93553.31;;;7.19;95.36
9229;BME280;4649;42.644;23.284;2022-10-16T03:27:41;93767.19;;;8.47;95.93
9229;BME280;4649;42.644;23.284;2022-10-16T03:30:12;93640.75;;;7.56;95.96
9229;BME280;4649;42.644;23.284;2022-10-16T03:32:43;93685.66;;;7.82;96.24
9229;BME280;4649;42.644;23.284;2022-10-16T03:35:16;93690.00;;;8.03;95.66
9229;BME280;4649;42.644;23.284;2022-10-16T03:37:47;93637.84;;;7.68;95.11
9229;BME280;4649;42.644;23.284;2022-10-16T03:40:14;93685.25;;;7.98;94.42
9229;BME280;4649;42.644;23.284;2022-10-16T03:42:42;93679.59;;;7.96;94.35
9229;BME280;4649;42.644;23.284;2022-10-16T03:45:10;93667.47;;;7.91;95.00
9229;BME280;4649;42.644;23.284;2022-10-16T03:47:38;93634.47;;;7.82;94.03
9229;BME280;4649;42.644;23.284;2022-10-16T03:50:05;93688.72;;;8.22;94.09
9229;BME280;4649;42.644;23.284;2022-10-16T03:52:34;93753.00;;;8.61;94.28
9229;BME280;4649;42.644;23.284;2022-10-16T03:55:01;93726.47;;;8.22;94.57
9229;BME280;4649;42.644;23.284;2022-10-16T03:57:29;93757.81;;;8.34;95.01
9229;BME280;4649;42.644;23.284;2022-10-16T03:59:56;93657.69;;;7.56;95.46
9229;BME280;4649;42.644;23.284;2022-10-16T04:02:23;93728.00;;;7.90;96.61
9229;BME280;4649;42.644;23.284;2022-10-16T04:04:51;93749.03;;;8.01;97.65
9229;BME280;4649;42.644;23.284;2022-10-16T04:07:18;93724.63;;;7.72;98.20
9229;BME280;4649;42.644;23.284;2022-10-16T04:09:47;93568.31;;;6.79;98.57
9229;BME280;4649;42.644;23.284;2022-10-16T04:12:17;93724.47;;;7.99;97.32
9229;BME280;4649;42.644;23.284;2022-10-16T04:14:46;93619.19;;;7.32;97.05
9229;BME280;4649;42.644;23.284;2022-10-16T04:17:13;93623.97;;;7.37;96.83
9229;BME280;4649;42.644;23.284;2022-10-16T04:19:40;93752.78;;;8.27;96.08
9229;BME280;4649;42.644;23.284;2022-10-16T04:22:08;93572.03;;;7.14;95.76
9229;BME280;4649;42.644;23.284;2022-10-16T04:24:35;93748.78;;;8.46;95.65
9229;BME280;4649;42.644;23.284;2022-10-16T04:27:04;93590.22;;;7.51;95.93
9229;BME280;4649;42.644;23.284;2022-10-16T04:29:32;93751.81;;;8.76;94.88
9229;BME280;4649;42.644;23.284;2022-10-16T04:31:59;93731.50;;;8.66;93.90
9229;BME280;4649;42.644;23.284;2022-10-16T04:34:26;93766.84;;;9.06;92.69
9229;BME280;4649;42.644;23.284;2022-10-16T04:36:53;93714.59;;;8.66;91.04
9229;BME280;4649;42.644;23.284;2022-10-16T04:39:22;93766.41;;;9.08;90.93
9229;BME280;4649;42.644;23.284;2022-10-16T04:41:49;93632.25;;;8.18;90.94
9229;BME280;4649;42.644;23.284;2022-10-16T04:44:32;93779.69;;;9.11;91.23
9229;BME280;4649;42.644;23.284;2022-10-16T04:47:00;93736.00;;;8.69;91.63
9229;BME280;4649;42.644;23.284;2022-10-16T04:49:28;93650.16;;;7.84;92.70
9229;BME280;4649;42.644;23.284;2022-10-16T04:51:56;93785.06;;;8.59;94.50
9229;BME280;4649;42.644;23.284;2022-10-16T04:54:23;93651.44;;;7.97;93.86
9229;BME280;4649;42.644;23.284;2022-10-16T04:57:01;93668.41;;;8.49;92.44
9229;BME280;4649;42.644;23.284;2022-10-16T05:00:11;93807.91;;;9.96;89.12
9229;BME280;4649;42.644;23.284;2022-10-16T05:03:12;93717.25;;;10.35;84.61
9229;BME280;4649;42.644;23.284;2022-10-16T05:08:31;93697.41;;;11.39;75.65
9229;BME280;4649;42.644;23.284;2022-10-16T05:11:08;93606.44;;;10.71;76.09
9229;BME280;4649;42.644;23.284;2022-10-16T05:13:50;93741.91;;;11.89;74.73
9229;BME280;4649;42.644;23.284;2022-10-16T05:19:41;93648.16;;;13.75;67.62
9229;BME280;4649;42.644;23.284;2022-10-16T05:22:08;93711.19;;;14.17;65.52
9229;BME280;4649;42.644;23.284;2022-10-16T05:28:00;93647.84;;;16.54;55.50
9229;BME280;4649;42.644;23.284;2022-10-16T05:36:28;93768.38;;;18.65;50.02
9229;BME280;4649;42.644;23.284;2022-10-16T05:39:00;93768.19;;;19.02;49.53
9229;BME280;4649;42.644;23.284;2022-10-16T05:41:27;93812.06;;;19.79;47.75
9229;BME280;4649;42.644;23.284;2022-10-16T05:43:54;93766.34;;;19.89;47.16
9229;BME280;4649;42.644;23.284;2022-10-16T05:46:21;93825.44;;;20.90;44.46
9229;BME280;4649;42.644;23.284;2022-10-16T05:48:48;93806.19;;;20.90;42.14
9229;BME280;4649;42.644;23.284;2022-10-16T05:51:16;93657.44;;;19.58;44.88
9229;BME280;4649;42.644;23.284;2022-10-16T05:53:46;93787.22;;;21.07;44.13
9229;BME280;4649;42.644;23.284;2022-10-16T05:56:15;93791.47;;;21.08;40.10
9229;BME280;4649;42.644;23.284;2022-10-16T05:58:42;93822.91;;;20.92;43.84
9229;BME280;4649;42.644;23.284;2022-10-16T06:01:12;93833.13;;;20.84;43.42
9229;BME280;4649;42.644;23.284;2022-10-16T06:03:41;93831.72;;;21.46;41.29
9229;BME280;4649;42.644;23.284;2022-10-16T06:06:10;93838.09;;;21.69;39.89
9229;BME280;4649;42.644;23.284;2022-10-16T06:08:38;93840.22;;;21.98;38.86
9229;BME280;4649;42.644;23.284;2022-10-16T06:11:10;93848.50;;;22.48;39.43
9229;BME280;4649;42.644;23.284;2022-10-16T06:13:37;93852.66;;;23.14;38.21
9229;BME280;4649;42.644;23.284;2022-10-16T06:16:07;93800.31;;;24.00;36.29
9229;BME280;4649;42.644;23.284;2022-10-16T06:18:34;93857.94;;;25.38;34.66
9229;BME280;4649;42.644;23.284;2022-10-16T06:21:07;93782.66;;;26.09;31.94
9229;BME280;4649;42.644;23.284;2022-10-16T06:23:34;93845.94;;;27.51;29.46
9229;BME280;4649;42.644;23.284;2022-10-16T06:26:06;93847.06;;;27.84;29.36
9229;BME280;4649;42.644;23.284;2022-10-16T06:28:37;93859.38;;;28.37;28.37
9229;BME280;4649;42.644;23.284;2022-10-16T06:31:06;93850.03;;;29.01;28.02
9229;BME280;4649;42.644;23.284;2022-10-16T06:33:33;93836.38;;;29.65;26.19
9229;BME280;4649;42.644;23.284;2022-10-16T06:36:01;93808.97;;;29.22;26.06
9229;BME280;4649;42.644;23.284;2022-10-16T06:38:28;93825.38;;;29.37;25.96
9229;BME280;4649;42.644;23.284;2022-10-16T06:40:55;93808.81;;;30.02;24.80
9229;BME280;4649;42.644;23.284;2022-10-16T06:43:24;93815.09;;;30.99;23.43
9229;BME280;4649;42.644;23.284;2022-10-16T06:45:52;93876.56;;;31.31;23.75
9229;BME280;4649;42.644;23.284;2022-10-16T06:48:19;93824.47;;;31.26;23.25
9229;BME280;4649;42.644;23.284;2022-10-16T06:50:55;93858.72;;;32.29;22.39
9229;BME280;4649;42.644;23.284;2022-10-16T06:53:22;93820.47;;;32.22;21.85
9229;BME280;4649;42.644;23.284;2022-10-16T06:55:49;93886.84;;;33.04;21.36
9229;BME280;4649;42.644;23.284;2022-10-16T06:58:16;93844.38;;;32.23;21.95
9229;BME280;4649;42.644;23.284;2022-10-16T07:00:44;93881.09;;;32.05;22.02
9229;BME280;4649;42.644;23.284;2022-10-16T07:03:11;93849.34;;;32.61;21.20
9229;BME280;4649;42.644;23.284;2022-10-16T07:05:39;93881.78;;;33.14;20.31
9229;BME280;4649;42.644;23.284;2022-10-16T07:08:06;93860.06;;;32.65;23.24
9229;BME280;4649;42.644;23.284;2022-10-16T07:10:33;93877.22;;;32.95;19.97
9229;BME280;4649;42.644;23.284;2022-10-16T07:13:00;93850.38;;;33.55;20.40
9229;BME280;4649;42.644;23.284;2022-10-16T07:15:27;93853.53;;;33.75;19.60
9229;BME280;4649;42.644;23.284;2022-10-16T07:17:57;93853.63;;;33.63;19.97
9229;BME280;4649;42.644;23.284;2022-10-16T07:20:24;93905.94;;;33.70;20.11
9229;BME280;4649;42.644;23.284;2022-10-16T07:22:51;93907.19;;;34.48;19.10
9229;BME280;4649;42.644;23.284;2022-10-16T07:25:18;93840.53;;;34.50;19.03
9229;BME280;4649;42.644;23.284;2022-10-16T07:27:45;93843.84;;;33.91;19.33
9229;BME280;4649;42.644;23.284;2022-10-16T07:30:12;93863.75;;;32.56;20.03
9229;BME280;4649;42.644;23.284;2022-10-16T07:32:39;93911.16;;;34.56;18.52
9229;BME280;4649;42.644;23.284;2022-10-16T07:35:08;93887.44;;;34.74;18.78
9229;BME280;4649;42.644;23.284;2022-10-16T07:37:35;93914.31;;;34.49;19.87
9229;BME280;4649;42.644;23.284;2022-10-16T07:40:02;93780.19;;;34.24;18.60
9229;BME280;4649;42.644;23.284;2022-10-16T07:42:32;93893.22;;;36.44;18.06
9229;BME280;4649;42.644;23.284;2022-10-16T07:44:58;93896.75;;;36.77;16.53
9229;BME280;4649;42.644;23.284;2022-10-16T07:47:25;93893.72;;;35.77;17.63
9229;BME280;4649;42.644;23.284;2022-10-16T07:49:52;93911.59;;;34.24;17.96
9229;BME280;4649;42.644;23.284;2022-10-16T07:52:22;93893.06;;;29.68;23.47
9229;BME280;4649;42.644;23.284;2022-10-16T07:54:49;93916.25;;;33.66;19.54
9229;BME280;4649;42.644;23.284;2022-10-16T07:57:16;93879.13;;;34.07;18.60
9229;BME280;4649;42.644;23.284;2022-10-16T07:59:44;93930.28;;;35.15;17.39
9229;BME280;4649;42.644;23.284;2022-10-16T08:02:11;93839.25;;;34.24;17.32
9229;BME280;4649;42.644;23.284;2022-10-16T08:04:38;93826.72;;;32.46;19.47
9229;BME280;4649;42.644;23.284;2022-10-16T08:07:06;93923.22;;;35.29;18.06
9229;BME280;4649;42.644;23.284;2022-10-16T08:09:35;93852.88;;;35.01;18.17
9229;BME280;4649;42.644;23.284;2022-10-16T08:12:02;93872.63;;;33.51;18.71
9229;BME280;4649;42.644;23.284;2022-10-16T08:14:29;93927.09;;;34.38;18.33
9229;BME280;4649;42.644;23.284;2022-10-16T08:16:56;93891.53;;;35.00;17.96
9229;BME280;4649;42.644;23.284;2022-10-16T08:19:24;93914.28;;;36.58;16.68
9229;BME280;4649;42.644;23.284;2022-10-16T08:21:51;93887.19;;;36.51;16.10
9229;BME280;4649;42.644;23.284;2022-10-16T08:24:18;93798.47;;;34.39;17.71
9229;BME280;4649;42.644;23.284;2022-10-16T08:26:47;93882.66;;;33.30;18.84
9229;BME280;4649;42.644;23.284;2022-10-16T08:29:15;93841.44;;;34.97;16.89
9229;BME280;4649;42.644;23.284;2022-10-16T08:31:45;93916.66;;;34.41;17.92
9229;BME280;4649;42.644;23.284;2022-10-16T08:34:12;93808.72;;;33.12;17.97
9229;BME280;4649;42.644;23.284;2022-10-16T08:36:40;93799.25;;;34.83;16.69
9229;BME280;4649;42.644;23.284;2022-10-16T08:39:07;93898.72;;;34.61;18.38
9229;BME280;4649;42.644;23.284;2022-10-16T08:42:08;93821.44;;;30.03;20.23
9229;BME280;4649;42.644;23.284;2022-10-16T08:47:49;93904.31;;;35.32;17.42
9229;BME280;4649;42.644;23.284;2022-10-16T08:50:23;93922.09;;;36.59;15.76
9229;BME280;4649;42.644;23.284;2022-10-16T08:52:52;93920.91;;;34.68;16.76
9229;BME280;4649;42.644;23.284;2022-10-16T08:55:29;93926.78;;;33.40;17.71
9229;BME280;4649;42.644;23.284;2022-10-16T08:57:59;93895.38;;;34.09;17.46
9229;BME280;4649;42.644;23.284;2022-10-16T09:00:27;93864.75;;;33.88;18.00
9229;BME280;4649;42.644;23.284;2022-10-16T09:03:03;93927.16;;;34.67;17.12
9229;BME280;4649;42.644;23.284;2022-10-16T09:05:49;93871.81;;;35.29;15.91
9229;BME280;4649;42.644;23.284;2022-10-16T09:08:24;93911.00;;;33.60;16.97
9229;BME280;4649;42.644;23.284;2022-10-16T09:10:56;93915.84;;;33.98;17.03
9229;BME280;4649;42.644;23.284;2022-10-16T09:13:40;93786.03;;;32.45;17.03
9229;BME280;4649;42.644;23.284;2022-10-16T09:16:18;93934.16;;;31.91;17.53
9229;BME280;4649;42.644;23.284;2022-10-16T09:18:53;93859.00;;;30.96;18.26
9229;BME280;4649;42.644;23.284;2022-10-16T09:21:25;93872.28;;;31.07;19.00
9229;BME280;4649;42.644;23.284;2022-10-16T09:23:54;93916.28;;;32.08;18.14
9229;BME280;4649;42.644;23.284;2022-10-16T09:26:23;93910.94;;;31.54;18.32
9229;BME280;4649;42.644;23.284;2022-10-16T09:28:53;93896.53;;;29.48;19.94
9229;BME280;4649;42.644;23.284;2022-10-16T09:31:22;93928.88;;;27.36;21.23
9229;BME280;4649;42.644;23.284;2022-10-16T09:33:52;93939.88;;;26.91;22.95
9229;BME280;4649;42.644;23.284;2022-10-16T09:36:21;93849.94;;;26.60;23.50
9229;BME280;4649;42.644;23.284;2022-10-16T09:39:02;93926.44;;;26.44;23.16
9229;BME280;4649;42.644;23.284;2022-10-16T09:41:30;93919.53;;;27.86;21.96
9229;BME280;4649;42.644;23.284;2022-10-16T09:43:59;93916.63;;;29.06;20.87
9229;BME280;4649;42.644;23.284;2022-10-16T09:46:29;93907.22;;;27.79;20.92
9229;BME280;4649;42.644;23.284;2022-10-16T09:48:58;93929.50;;;26.31;23.32
9229;BME280;4649;42.644;23.284;2022-10-16T09:51:28;93897.94;;;28.32;20.53
9229;BME280;4649;42.644;23.284;2022-10-16T09:53:57;93840.31;;;28.06;20.87
9229;BME280;4649;42.644;23.284;2022-10-16T09:56:26;93859.22;;;29.13;19.69
9229;BME280;4649;42.644;23.284;2022-10-16T09:58:56;93888.84;;;29.58;20.19
9229;BME280;4649;42.644;23.284;2022-10-16T10:01:29;93820.88;;;29.53;19.45
9229;BME280;4649;42.644;23.284;2022-10-16T10:03:57;93889.00;;;29.59;19.71
9229;BME280;4649;42.644;23.284;2022-10-16T10:06:31;93914.84;;;29.20;21.85
9229;BME280;4649;42.644;23.284;2022-10-16T10:09:13;93906.41;;;28.71;22.05
9229;BME280;4649;42.644;23.284;2022-10-16T10:11:51;93843.56;;;28.31;20.75
9229;BME280;4649;42.644;23.284;2022-10-16T10:14:28;93878.28;;;28.48;21.45
9229;BME280;4649;42.644;23.284;2022-10-16T10:17:16;93834.81;;;27.51;22.50
9229;BME280;4649;42.644;23.284;2022-10-16T10:19:47;93908.59;;;27.97;22.70
9229;BME280;4649;42.644;23.284;2022-10-16T10:22:29;93869.41;;;27.22;23.61
9229;BME280;4649;42.644;23.284;2022-10-16T10:25:12;93887.88;;;27.27;22.51
9229;BME280;4649;42.644;23.284;2022-10-16T10:27:49;93854.22;;;26.44;23.24
9229;BME280;4649;42.644;23.284;2022-10-16T10:30:23;93909.56;;;25.91;24.21
9229;BME280;4649;42.644;23.284;2022-10-16T10:33:07;93835.19;;;24.66;24.97
9229;BME280;4649;42.644;23.284;2022-10-16T10:35:43;93867.28;;;23.69;26.20
9229;BME280;4649;42.644;23.284;2022-10-16T10:38:24;93877.75;;;22.44;28.16
9229;BME280;4649;42.644;23.284;2022-10-16T10:41:04;93851.53;;;22.15;29.31
9229;BME280;4649;42.644;23.284;2022-10-16T10:43:45;93807.34;;;22.00;28.68
9229;BME280;4649;42.644;23.284;2022-10-16T10:46:22;93826.16;;;21.74;29.54
9229;BME280;4649;42.644;23.284;2022-10-16T10:51:26;93861.72;;;22.42;29.07
9229;BME280;4649;42.644;23.284;2022-10-16T10:54:10;93843.69;;;22.34;29.00
9229;BME280;4649;42.644;23.284;2022-10-16T10:56:51;93877.75;;;22.51;29.60
9229;BME280;4649;42.644;23.284;2022-10-16T10:59:33;93846.22;;;22.24;28.86
9229;BME280;4649;42.644;23.284;2022-10-16T11:02:26;93775.06;;;21.65;30.43
9229;BME280;4649;42.644;23.284;2022-10-16T11:09:10;93809.19;;;21.27;29.24
9229;BME280;4649;42.644;23.284;2022-10-16T11:17:26;93721.34;;;18.48;30.53
9229;BME280;4649;42.644;23.284;2022-10-16T11:20:29;93847.34;;;19.88;32.36
9229;BME280;4649;42.644;23.284;2022-10-16T11:23:41;93789.25;;;20.05;29.77
9229;BME280;4649;42.644;23.284;2022-10-16T11:26:18;93749.13;;;20.22;30.47
9229;BME280;4649;42.644;23.284;2022-10-16T11:28:48;93799.78;;;20.47;29.82
9229;BME280;4649;42.644;23.284;2022-10-16T11:31:19;93779.50;;;19.83;29.86
9229;BME280;4649;42.644;23.284;2022-10-16T11:33:52;93826.50;;;19.93;28.99
9229;BME280;4649;42.644;23.284;2022-10-16T11:36:23;93744.03;;;19.72;29.67
9229;BME280;4649;42.644;23.284;2022-10-16T11:38:57;93810.94;;;20.69;29.02
9229;BME280;4649;42.644;23.284;2022-10-16T11:41:33;93858.22;;;21.29;29.11
9229;BME280;4649;42.644;23.284;2022-10-16T11:44:14;93856.00;;;21.27;28.35
9229;BME280;4649;42.644;23.284;2022-10-16T11:46:48;93857.97;;;21.19;27.63
9229;BME280;4649;42.644;23.284;2022-10-16T11:49:19;93805.19;;;21.00;28.20
9229;BME280;4649;42.644;23.284;2022-10-16T11:51:52;93856.97;;;21.37;27.68
9229;BME280;4649;42.644;23.284;2022-10-16T11:54:29;93858.25;;;21.99;26.55
9229;BME280;4649;42.644;23.284;2022-10-16T11:57:05;93794.16;;;22.06;26.82
9229;BME280;4649;42.644;23.284;2022-10-16T11:59:40;93826.88;;;21.67;25.76
9229;BME280;4649;42.644;23.284;2022-10-16T12:02:26;93695.06;;;21.00;26.78
9229;BME280;4649;42.644;23.284;2022-10-16T12:05:16;93861.94;;;22.44;26.09
9229;BME280;4649;42.644;23.284;2022-10-16T12:07:52;93798.56;;;21.66;26.14
9229;BME280;4649;42.644;23.284;2022-10-16T12:10:22;93775.56;;;21.21;27.38
9229;BME280;4649;42.644;23.284;2022-10-16T12:12:52;93860.88;;;21.42;27.13
9229;BME280;4649;42.644;23.284;2022-10-16T12:15:24;93824.31;;;20.85;27.83
9229;BME280;4649;42.644;23.284;2022-10-16T12:17:52;93855.25;;;20.58;28.44
9229;BME280;4649;42.644;23.284;2022-10-16T12:20:23;93836.41;;;21.10;29.21
9229;BME280;4649;42.644;23.284;2022-10-16T12:22:54;93678.16;;;20.41;29.79
9229;BME280;4649;42.644;23.284;2022-10-16T12:25:24;93722.44;;;20.30;27.32
9229;BME280;4649;42.644;23.284;2022-10-16T12:28:00;93863.09;;;20.21;29.26
9229;BME280;4649;42.644;23.284;2022-10-16T12:30:29;93867.78;;;20.13;29.87
9229;BME280;4649;42.644;23.284;2022-10-16T12:32:59;93853.63;;;20.63;31.03
9229;BME280;4649;42.644;23.284;2022-10-16T12:35:30;93704.03;;;19.84;28.84
9229;BME280;4649;42.644;23.284;2022-10-16T12:38:15;93811.59;;;20.01;29.41
9229;BME280;4649;42.644;23.284;2022-10-16T12:40:57;93792.63;;;20.11;29.52
9229;BME280;4649;42.644;23.284;2022-10-16T12:43:48;93871.28;;;20.67;28.91
9229;BME280;4649;42.644;23.284;2022-10-16T12:46:39;93865.31;;;19.63;30.97
9229;BME280;4649;42.644;23.284;2022-10-16T12:49:22;93849.91;;;20.40;29.19
9229;BME280;4649;42.644;23.284;2022-10-16T12:51:52;93870.94;;;20.71;29.89
9229;BME280;4649;42.644;23.284;2022-10-16T12:57:19;93649.31;;;19.33;28.70
9229;BME280;4649;42.644;23.284;2022-10-16T13:00:13;93771.69;;;19.74;29.72
9229;BME280;4649;42.644;23.284;2022-10-16T13:03:12;93817.22;;;19.83;29.32
9229;BME280;4649;42.644;23.284;2022-10-16T13:08:54;93789.28;;;18.68;30.85
9229;BME280;4649;42.644;23.284;2022-10-16T13:12:06;93876.31;;;19.38;31.21
9229;BME280;4649;42.644;23.284;2022-10-16T13:17:59;93832.19;;;19.23;31.25
9229;BME280;4649;42.644;23.284;2022-10-16T13:20:41;93796.31;;;19.21;32.98
9229;BME280;4649;42.644;23.284;2022-10-16T13:23:53;93847.47;;;19.57;32.45
9229;BME280;4649;42.644;23.284;2022-10-16T13:38:37;93698.03;;;17.67;33.25
9229;BME280;4649;42.644;23.284;2022-10-16T13:41:05;93761.69;;;18.04;34.46
9229;BME280;4649;42.644;23.284;2022-10-16T13:43:45;93743.50;;;16.78;36.22
9229;BME280;4649;42.644;23.284;2022-10-16T13:46:15;93854.44;;;17.39;37.43
9229;BME280;4649;42.644;23.284;2022-10-16T13:49:12;93806.88;;;16.76;38.81
9229;BME280;4649;42.644;23.284;2022-10-16T13:51:42;93814.56;;;16.78;38.76
9229;BME280;4649;42.644;23.284;2022-10-16T13:54:41;93773.88;;;16.16;39.31
9229;BME280;4649;42.644;23.284;2022-10-16T13:57:14;93772.41;;;16.44;39.31
9229;BME280;4649;42.644;23.284;2022-10-16T13:59:44;93816.66;;;17.14;39.73
9229;BME280;4649;42.644;23.284;2022-10-16T14:02:20;93768.22;;;16.08;38.74
9229;BME280;4649;42.644;23.284;2022-10-16T14:04:48;93799.09;;;16.33;41.92
9229;BME280;4649;42.644;23.284;2022-10-16T14:07:21;93890.00;;;17.15;41.35
9229;BME280;4649;42.644;23.284;2022-10-16T14:09:51;93771.66;;;16.14;40.72
9229;BME280;4649;42.644;23.284;2022-10-16T14:12:20;93855.03;;;16.55;41.21
9229;BME280;4649;42.644;23.284;2022-10-16T14:14:50;93715.75;;;15.22;41.67
9229;BME280;4649;42.644;23.284;2022-10-16T14:17:19;93750.00;;;15.12;41.70
9229;BME280;4649;42.644;23.284;2022-10-16T14:19:47;93785.66;;;15.25;41.35
9229;BME280;4649;42.644;23.284;2022-10-16T14:22:28;93881.88;;;15.77;43.12
9229;BME280;4649;42.644;23.284;2022-10-16T14:24:57;93783.03;;;14.92;43.25
9229;BME280;4649;42.644;23.284;2022-10-16T14:27:29;93862.56;;;15.07;44.02
9229;BME280;4649;42.644;23.284;2022-10-16T14:30:14;93791.38;;;14.32;45.97
9229;BME280;4649;42.644;23.284;2022-10-16T14:32:42;93898.97;;;15.10;46.45
9229;BME280;4649;42.644;23.284;2022-10-16T14:35:23;93867.28;;;14.90;46.48